Nathalie — OJLP — position and weather

sailwx.info

Track history (hours):
 
Tides and Currents Weather Stations Pressure Air Temp Water Temp Dewpoint Dewpoint Depression Visibility Wind Speed Wind Dir Waves Ship Positions

Nathalie

Last reported at 2015-Mar-06 19:33 UTC. Time now 2015-Mar-06 20:09 UTC.
Position N 60°12' E 026°41'.

Length 64 m; draft 2.8 m.

Type: Cargo ship. MMSI: 230987660.

Date/timePositionNaut miles runAvg speedWind from/ knotsBaromVisibWave heightAir tempDewpointWater temp
2015-Mar-06 19:33N 60°12' E 026°41'9 8.5
2015-Mar-06 18:33N 60°17' E 026°53'7 7.0
2015-Mar-06 17:33N 60°20' E 027°06'8 7.8
2015-Mar-06 16:33N 60°28' E 027°08'3 0.1
2015-Mar-05 14:33N 60°31' E 027°10'7 7.5
2015-Mar-05 13:33N 60°27' E 026°58'8 8.4
2015-Mar-05 12:33N 60°22' E 026°44'8 7.9
2015-Mar-05 11:33N 60°19' E 026°29'9 8.8
2015-Mar-05 10:29N 60°16' E 026°11'  
2015-Mar-02 07:07N 59°41' E 024°50'5 8.9
2015-Mar-02 06:34N 59°38' E 024°43'8 8.1
2015-Mar-02 05:34N 59°30' E 024°45'3 2.4
2015-Mar-02 04:31N 59°28' E 024°43'0 0.0
2015-Mar-02 03:25N 59°28' E 024°43'0 0.0
2015-Mar-02 02:31N 59°28' E 024°43'0 0.0
2015-Mar-02 01:31N 59°28' E 024°43'0 0.0
2015-Mar-02 00:31N 59°28' E 024°43'0 0.0
2015-Mar-01 23:31N 59°28' E 024°43'0 0.0
2015-Mar-01 22:31N 59°28' E 024°43'0 0.0
2015-Mar-01 21:31N 59°28' E 024°43'0 0.0
2015-Mar-01 20:28N 59°28' E 024°43'0 0.0
2015-Mar-01 19:31N 59°28' E 024°43'0 0.0
2015-Mar-01 18:31N 59°28' E 024°43'0 0.0
2015-Mar-01 17:28N 59°28' E 024°43'0 0.0
2015-Mar-01 16:34N 59°28' E 024°43'0 0.0
2015-Mar-01 15:33N 59°28' E 024°43'0 0.0
2015-Mar-01 14:30N 59°28' E 024°43'0 0.0
2015-Mar-01 13:27N 59°28' E 024°43'0 0.0
2015-Mar-01 12:33N 59°28' E 024°43'0 0.0
2015-Mar-01 11:33N 59°28' E 024°43'0 0.0
2015-Mar-01 10:33N 59°28' E 024°43'0 0.0
2015-Mar-01 09:33N 59°28' E 024°43'0 0.0
2015-Mar-01 08:33N 59°28' E 024°43'0 0.0
2015-Mar-01 07:33N 59°28' E 024°43'0 0.0
2015-Mar-01 06:33N 59°28' E 024°43'0 0.0
2015-Mar-01 05:33N 59°28' E 024°43'0 0.0
2015-Mar-01 04:33N 59°28' E 024°43'0 0.0
2015-Mar-01 03:33N 59°28' E 024°43'0 0.0
2015-Mar-01 02:33N 59°28' E 024°43'0 0.0
2015-Mar-01 01:30N 59°28' E 024°43'0 0.0
2015-Mar-01 00:27N 59°28' E 024°43'0 0.0
2015-Feb-28 23:33N 59°28' E 024°43'0 0.0
2015-Feb-28 22:33N 59°28' E 024°43'0 0.0
2015-Feb-28 21:33N 59°28' E 024°43'0 0.0
2015-Feb-28 20:33N 59°28' E 024°43'0 0.0
2015-Feb-28 19:33N 59°28' E 024°43'0 0.0
2015-Feb-28 18:33N 59°28' E 024°43'0 0.0
2015-Feb-28 17:33N 59°28' E 024°43'0 0.0
2015-Feb-28 16:33N 59°28' E 024°43'0 0.0
2015-Feb-28 15:33N 59°28' E 024°43'3 2.9
2015-Feb-28 14:33N 59°30' E 024°40'37 8.8
2015-Feb-28 10:23N 59°39' E 023°30'67 1.8
2015-Feb-26 20:33N 59°53' E 021°20'8 8.1
2015-Feb-26 19:33N 59°45' E 021°21'8 8.1
2015-Feb-26 18:33N 59°36' E 021°20'279 6.0
2015-Feb-24 20:19N 55°12' E 018°39'  
Track history (hours):
 
Tides and Currents Weather Stations Pressure Air Temp Water Temp Dewpoint Dewpoint Depression Visibility Wind Speed Wind Dir Waves Ship Positions

Nathalie

Last reported at 2015-Mar-06 19:33 UTC. Time now 2015-Mar-06 20:09 UTC.
Position N 60°12' E 026°41'.

Length 64 m; draft 2.8 m.

Type: Cargo ship. MMSI: 230987660.

Date/timePositionNaut miles runAvg speedWind from/ knotsBaromVisibWave heightAir tempDewpointWater temp
2015-Mar-06 19:33N 60°12' E 026°41'9 8.5
2015-Mar-06 18:33N 60°17' E 026°53'7 7.0
2015-Mar-06 17:33N 60°20' E 027°06'8 7.8
2015-Mar-06 16:33N 60°28' E 027°08'3 0.1
2015-Mar-05 14:33N 60°31' E 027°10'7 7.5
2015-Mar-05 13:33N 60°27' E 026°58'8 8.4
2015-Mar-05 12:33N 60°22' E 026°44'8 7.9
2015-Mar-05 11:33N 60°19' E 026°29'9 8.8
2015-Mar-05 10:29N 60°16' E 026°11'  
2015-Mar-02 07:07N 59°41' E 024°50'5 8.9
2015-Mar-02 06:34N 59°38' E 024°43'8 8.1
2015-Mar-02 05:34N 59°30' E 024°45'3 2.4
2015-Mar-02 04:31N 59°28' E 024°43'0 0.0
2015-Mar-02 03:25N 59°28' E 024°43'0 0.0
2015-Mar-02 02:31N 59°28' E 024°43'0 0.0
2015-Mar-02 01:31N 59°28' E 024°43'0 0.0
2015-Mar-02 00:31N 59°28' E 024°43'0 0.0
2015-Mar-01 23:31N 59°28' E 024°43'0 0.0
2015-Mar-01 22:31N 59°28' E 024°43'0 0.0
2015-Mar-01 21:31N 59°28' E 024°43'0 0.0
2015-Mar-01 20:28N 59°28' E 024°43'0 0.0
2015-Mar-01 19:31N 59°28' E 024°43'0 0.0
2015-Mar-01 18:31N 59°28' E 024°43'0 0.0
2015-Mar-01 17:28N 59°28' E 024°43'0 0.0
2015-Mar-01 16:34N 59°28' E 024°43'0 0.0
2015-Mar-01 15:33N 59°28' E 024°43'0 0.0
2015-Mar-01 14:30N 59°28' E 024°43'0 0.0
2015-Mar-01 13:27N 59°28' E 024°43'0 0.0
2015-Mar-01 12:33N 59°28' E 024°43'0 0.0
2015-Mar-01 11:33N 59°28' E 024°43'0 0.0
2015-Mar-01 10:33N 59°28' E 024°43'0 0.0
2015-Mar-01 09:33N 59°28' E 024°43'0 0.0
2015-Mar-01 08:33N 59°28' E 024°43'0 0.0
2015-Mar-01 07:33N 59°28' E 024°43'0 0.0
2015-Mar-01 06:33N 59°28' E 024°43'0 0.0
2015-Mar-01 05:33N 59°28' E 024°43'0 0.0
2015-Mar-01 04:33N 59°28' E 024°43'0 0.0
2015-Mar-01 03:33N 59°28' E 024°43'0 0.0
2015-Mar-01 02:33N 59°28' E 024°43'0 0.0
2015-Mar-01 01:30N 59°28' E 024°43'0 0.0
2015-Mar-01 00:27N 59°28' E 024°43'0 0.0
2015-Feb-28 23:33N 59°28' E 024°43'0 0.0
2015-Feb-28 22:33N 59°28' E 024°43'0 0.0
2015-Feb-28 21:33N 59°28' E 024°43'0 0.0
2015-Feb-28 20:33N 59°28' E 024°43'0 0.0
2015-Feb-28 19:33N 59°28' E 024°43'0 0.0
2015-Feb-28 18:33N 59°28' E 024°43'0 0.0
2015-Feb-28 17:33N 59°28' E 024°43'0 0.0
2015-Feb-28 16:33N 59°28' E 024°43'0 0.0
2015-Feb-28 15:33N 59°28' E 024°43'3 2.9
2015-Feb-28 14:33N 59°30' E 024°40'37 8.8
2015-Feb-28 10:23N 59°39' E 023°30'67 1.8
2015-Feb-26 20:33N 59°53' E 021°20'8 8.1
2015-Feb-26 19:33N 59°45' E 021°21'8 8.1
2015-Feb-26 18:33N 59°36' E 021°20'279 6.0
2015-Feb-24 20:19N 55°12' E 018°39'  

Dump ship's entire track history